createdAt,value
2019-03-03T00:00:54.438Z,11.38
2019-03-03T00:03:26.406Z,11.25
2019-03-03T00:06:00.777Z,11.31
2019-03-03T00:08:32.587Z,11.26
2019-03-03T00:11:06.330Z,11.25
2019-03-03T00:13:38.146Z,11.39
2019-03-03T00:16:10.928Z,11.38
2019-03-03T00:18:44.269Z,11.37
2019-03-03T00:21:19.547Z,11.48
2019-03-03T00:23:52.048Z,11.59
2019-03-03T00:26:23.851Z,11.64
2019-03-03T00:28:55.699Z,11.67
2019-03-03T00:31:38.039Z,11.65
2019-03-03T00:34:09.860Z,11.64
2019-03-03T00:36:59.572Z,11.73
2019-03-03T00:39:50.240Z,11.62
2019-03-03T00:42:32.613Z,11.61
2019-03-03T00:45:13.823Z,11.70
2019-03-03T00:48:13.883Z,11.84
2019-03-03T00:51:04.624Z,11.76
2019-03-03T00:53:55.375Z,11.51
2019-03-03T00:56:36.088Z,11.28
2019-03-03T00:59:26.818Z,11.30
2019-03-03T01:02:23.962Z,11.21
2019-03-03T01:05:15.115Z,11.28
2019-03-03T01:08:08.982Z,11.30
2019-03-03T01:11:00.200Z,11.45
2019-03-03T01:13:55.608Z,11.44
2019-03-03T01:16:46.704Z,11.27
2019-03-03T01:19:26.415Z,11.30
2019-03-03T01:22:15.995Z,11.42
2019-03-03T01:24:55.584Z,11.46
2019-03-03T01:27:28.112Z,11.48
2019-03-03T01:30:00.027Z,11.45
2019-03-03T01:32:33.819Z,11.46
2019-03-03T01:35:06.454Z,11.40
2019-03-03T01:37:38.288Z,11.45
2019-03-03T01:40:11.010Z,11.49
2019-03-03T01:42:42.845Z,11.48
2019-03-03T01:45:15.148Z,11.47
2019-03-03T01:47:47.027Z,11.42
2019-03-03T01:50:18.888Z,11.51
2019-03-03T01:52:51.208Z,11.49
2019-03-03T01:55:23.018Z,11.48
2019-03-03T01:57:54.970Z,11.44
2019-03-03T02:00:27.737Z,11.28
2019-03-03T02:02:59.837Z,11.26
2019-03-03T02:05:31.632Z,11.25
2019-03-03T02:08:03.783Z,11.19
2019-03-03T02:10:35.705Z,11.23
2019-03-03T02:13:08.927Z,11.27
2019-03-03T02:15:41.037Z,11.25
2019-03-03T02:18:12.886Z,11.35
2019-03-03T02:20:44.827Z,11.29
2019-03-03T02:23:16.713Z,11.33
2019-03-03T02:25:48.992Z,11.31
2019-03-03T02:28:20.846Z,11.34
2019-03-03T02:30:55.797Z,11.37
2019-03-03T02:33:29.889Z,11.33
2019-03-03T02:36:01.771Z,11.42
2019-03-03T02:38:33.609Z,11.46
2019-03-03T02:41:06.004Z,11.48
2019-03-03T02:43:40.451Z,11.54
2019-03-03T02:46:12.733Z,11.58
2019-03-03T02:48:44.571Z,11.50
2019-03-03T02:51:18.082Z,11.54
2019-03-03T02:53:49.983Z,11.60
2019-03-03T02:56:21.956Z,11.49
2019-03-03T02:58:53.789Z,11.51
2019-03-03T03:01:37.034Z,11.46
2019-03-03T03:04:09.063Z,11.47
2019-03-03T03:06:59.295Z,11.52
2019-03-03T03:09:58.853Z,11.48
2019-03-03T03:12:48.328Z,11.48
2019-03-03T03:15:54.516Z,11.56
2019-03-03T03:18:33.813Z,11.55
2019-03-03T03:21:21.501Z,11.54
2019-03-03T03:24:02.187Z,11.59
2019-03-03T03:26:39.662Z,11.64
2019-03-03T03:29:30.394Z,11.53
2019-03-03T03:32:23.374Z,11.53
2019-03-03T03:35:05.798Z,11.51
2019-03-03T03:38:00.962Z,11.51
2019-03-03T03:40:50.309Z,11.54
2019-03-03T03:43:41.613Z,11.57
2019-03-03T03:46:42.377Z,11.57
2019-03-03T03:49:29.517Z,11.59
2019-03-03T03:52:18.807Z,11.67
2019-03-03T03:55:17.018Z,11.73
2019-03-03T03:58:12.791Z,11.69
2019-03-03T04:01:06.854Z,11.73
2019-03-03T04:03:54.058Z,11.74
2019-03-03T04:06:57.434Z,11.83
2019-03-03T04:09:35.179Z,11.65
2019-03-03T04:12:28.690Z,11.54
2019-03-03T04:15:21.561Z,11.60
2019-03-03T04:18:03.188Z,11.62
2019-03-03T04:20:45.457Z,11.66
2019-03-03T04:23:51.301Z,11.66
2019-03-03T04:26:42.035Z,11.62
2019-03-03T04:29:36.644Z,11.62
2019-03-03T04:32:39.154Z,11.64
2019-03-03T04:35:28.446Z,11.65
2019-03-03T04:38:17.204Z,11.69
2019-03-03T04:41:24.103Z,11.64
2019-03-03T04:44:01.288Z,11.51
2019-03-03T04:46:57.991Z,11.58
2019-03-03T04:49:47.513Z,11.56
2019-03-03T04:52:34.377Z,11.56
2019-03-03T04:55:24.167Z,11.63
2019-03-03T04:58:17.999Z,11.71
2019-03-03T05:01:17.764Z,11.75
2019-03-03T05:04:23.577Z,11.87
2019-03-03T05:07:04.551Z,11.83
2019-03-03T05:09:43.018Z,11.91
2019-03-03T05:12:39.763Z,11.94
2019-03-03T05:15:41.585Z,11.99
2019-03-03T05:18:38.542Z,12.06
2019-03-03T05:21:12.133Z,11.88
2019-03-03T05:23:44.029Z,11.95
2019-03-03T05:26:15.826Z,12.03
2019-03-03T05:28:47.751Z,11.89
2019-03-03T05:31:19.624Z,12.02
2019-03-03T05:33:51.482Z,11.89
2019-03-03T05:36:24.890Z,11.90
2019-03-03T05:38:56.734Z,11.99
2019-03-03T05:41:28.585Z,11.92
2019-03-03T05:44:00.725Z,11.94
2019-03-03T05:46:32.583Z,11.95
2019-03-03T05:49:04.390Z,11.95
2019-03-03T05:51:37.691Z,11.94
2019-03-03T05:54:09.491Z,11.99
2019-03-03T05:56:41.539Z,11.90
2019-03-03T05:59:15.767Z,11.93
2019-03-03T06:01:47.595Z,11.99
2019-03-03T06:04:19.789Z,12.01
2019-03-03T06:06:52.128Z,11.97
2019-03-03T06:09:23.952Z,11.88
2019-03-03T06:11:55.802Z,11.88
2019-03-03T06:14:27.637Z,11.84
2019-03-03T06:17:00.695Z,11.91
2019-03-03T06:19:32.825Z,11.91
2019-03-03T06:22:04.717Z,11.92
2019-03-03T06:24:36.499Z,11.94
2019-03-03T06:27:08.716Z,12.05
2019-03-03T06:29:40.510Z,12.09
2019-03-03T06:32:12.324Z,12.15
2019-03-03T06:34:47.510Z,12.13
2019-03-03T06:37:19.355Z,12.05
2019-03-03T06:39:51.163Z,11.96
2019-03-03T06:42:24.308Z,12.09
2019-03-03T06:44:58.601Z,12.10
2019-03-03T06:47:30.437Z,12.07
2019-03-03T06:50:02.264Z,12.08
2019-03-03T06:52:34.087Z,12.09
2019-03-03T06:55:05.997Z,12.07
2019-03-03T06:57:37.888Z,12.09
2019-03-03T07:00:15.566Z,12.04
2019-03-03T07:02:47.357Z,12.07
2019-03-03T07:05:19.267Z,12.05
2019-03-03T07:07:51.260Z,12.02
2019-03-03T07:10:26.142Z,12.02
2019-03-03T07:12:57.963Z,12.00
2019-03-03T07:15:29.814Z,12.00
2019-03-03T07:18:01.583Z,12.06
2019-03-03T07:20:33.419Z,12.08
2019-03-03T07:23:05.277Z,12.17
2019-03-03T07:25:37.095Z,12.16
2019-03-03T07:28:08.960Z,12.16
2019-03-03T07:30:40.763Z,12.12
2019-03-03T07:33:15.365Z,12.07
2019-03-03T07:35:47.440Z,12.24
2019-03-03T07:38:19.247Z,12.22
2019-03-03T07:40:51.138Z,12.37
2019-03-03T07:43:22.937Z,12.34
2019-03-03T07:45:54.848Z,12.29
2019-03-03T07:48:26.701Z,12.34
2019-03-03T07:50:58.531Z,12.34
2019-03-03T07:53:30.363Z,12.27
2019-03-03T07:56:02.241Z,12.46
2019-03-03T07:58:34.180Z,12.48
2019-03-03T08:01:06.022Z,12.49
2019-03-03T08:03:39.559Z,12.44
2019-03-03T08:06:11.359Z,12.40
2019-03-03T08:08:46.055Z,12.42
2019-03-03T08:11:20.294Z,12.58
2019-03-03T08:13:52.162Z,12.60
2019-03-03T08:16:25.086Z,12.62
2019-03-03T08:18:56.903Z,12.82
2019-03-03T08:21:28.685Z,12.88
2019-03-03T08:24:00.533Z,12.93
2019-03-03T08:26:32.394Z,12.98
2019-03-03T08:29:04.569Z,13.04
2019-03-03T08:31:36.511Z,13.12
2019-03-03T08:34:08.494Z,13.29
2019-03-03T08:36:40.412Z,13.65
2019-03-03T08:39:12.340Z,13.69
2019-03-03T08:42:24.424Z,14.00
2019-03-03T08:45:09.977Z,14.32
2019-03-03T08:47:53.546Z,14.46
2019-03-03T08:50:30.459Z,15.32
2019-03-03T08:53:13.795Z,16.94
2019-03-03T08:56:04.854Z,19.41
2019-03-03T08:59:01.584Z,18.80
2019-03-03T09:02:04.217Z,17.16
2019-03-03T09:05:06.462Z,16.54
2019-03-03T09:07:49.750Z,16.35
2019-03-03T09:10:33.265Z,15.66
2019-03-03T09:13:13.914Z,15.40
2019-03-03T09:16:12.480Z,15.03
2019-03-03T09:19:09.129Z,15.29
2019-03-03T09:21:50.070Z,15.39
2019-03-03T09:24:53.867Z,15.34
2019-03-03T09:27:44.579Z,15.83
2019-03-03T09:30:41.149Z,16.38
2019-03-03T09:33:39.405Z,16.19
2019-03-03T09:36:28.985Z,16.38
2019-03-03T09:39:19.567Z,16.31
2019-03-03T09:42:03.286Z,15.92
2019-03-03T09:44:56.215Z,15.66
2019-03-03T09:47:48.578Z,15.74
2019-03-03T09:50:37.297Z,15.84
2019-03-03T09:53:27.990Z,15.72
2019-03-03T09:56:19.202Z,16.05
2019-03-03T09:59:15.789Z,16.06
2019-03-03T10:02:06.527Z,16.11
2019-03-03T10:04:56.317Z,16.00
2019-03-03T10:07:45.713Z,16.01
2019-03-03T10:10:29.192Z,16.08
2019-03-03T10:13:07.285Z,16.18
2019-03-03T10:16:02.651Z,16.56
2019-03-03T10:19:07.266Z,18.21
2019-03-03T10:22:07.260Z,19.84
2019-03-03T10:24:56.382Z,21.63
2019-03-03T10:27:45.047Z,23.28
2019-03-03T10:30:34.441Z,24.03
2019-03-03T10:33:28.483Z,22.91
2019-03-03T10:36:17.869Z,23.83
2019-03-03T10:39:21.061Z,22.27
2019-03-03T10:42:13.179Z,21.60
2019-03-03T10:44:59.321Z,21.30
2019-03-03T10:47:50.063Z,20.40
2019-03-03T10:50:30.397Z,21.63
2019-03-03T10:53:05.995Z,20.75
2019-03-03T10:55:56.800Z,19.87
2019-03-03T10:58:53.691Z,20.12
2019-03-03T11:01:47.099Z,20.25
2019-03-03T11:04:47.077Z,19.93
2019-03-03T11:07:38.170Z,19.44
2019-03-03T11:10:27.490Z,19.29
2019-03-03T11:13:16.372Z,19.42
2019-03-03T11:15:55.736Z,19.38
2019-03-03T11:18:56.039Z,19.53
2019-03-03T11:21:44.001Z,19.49
2019-03-03T11:24:24.355Z,20.85
2019-03-03T11:27:16.959Z,20.65
2019-03-03T11:30:22.304Z,21.17
2019-03-03T11:33:11.677Z,22.96
2019-03-03T11:36:02.585Z,23.37
2019-03-03T11:38:56.231Z,24.01
2019-03-03T11:41:47.030Z,23.85
2019-03-03T11:44:32.546Z,23.39
2019-03-03T11:47:21.745Z,24.11
2019-03-03T11:50:12.399Z,24.47
2019-03-03T11:53:03.132Z,24.59
2019-03-03T11:56:00.438Z,23.71
2019-03-03T11:58:57.219Z,22.54
2019-03-03T12:02:05.838Z,22.79
2019-03-03T12:05:06.129Z,22.87
2019-03-03T12:07:59.569Z,23.87
2019-03-03T12:10:37.608Z,23.81
2019-03-03T12:13:27.061Z,23.56
2019-03-03T12:16:23.828Z,23.12
2019-03-03T12:19:14.538Z,23.90
2019-03-03T12:22:05.370Z,23.42
2019-03-03T12:25:11.669Z,23.25
2019-03-03T12:27:59.815Z,23.82
2019-03-03T12:43:12.093Z,21.97
2019-03-03T12:45:53.544Z,21.27
2019-03-03T12:48:53.335Z,20.58
2019-03-03T12:51:42.689Z,20.21
2019-03-03T12:54:48.737Z,19.60
2019-03-03T12:57:46.883Z,19.99
2019-03-03T13:00:37.701Z,19.75
2019-03-03T13:03:34.954Z,18.95
2019-03-03T13:06:26.531Z,18.83
2019-03-03T13:09:15.839Z,18.59
2019-03-03T13:12:23.336Z,18.40
2019-03-03T13:15:04.614Z,18.17
2019-03-03T13:17:53.486Z,17.98
2019-03-03T13:20:56.338Z,17.71
2019-03-03T13:23:45.681Z,17.30
2019-03-03T13:26:48.736Z,17.28
2019-03-03T13:29:42.502Z,17.13
2019-03-03T13:32:30.174Z,17.07
2019-03-03T13:35:27.285Z,17.04
2019-03-03T13:38:10.877Z,16.97
2019-03-03T13:41:04.664Z,17.48
2019-03-03T13:43:36.497Z,17.60
2019-03-03T13:46:08.605Z,17.95
2019-03-03T13:48:40.530Z,17.69
2019-03-03T13:51:12.475Z,17.83
2019-03-03T13:53:44.328Z,17.84
2019-03-03T13:56:16.428Z,18.06
2019-03-03T13:58:48.216Z,18.10
2019-03-03T14:01:21.781Z,17.88
2019-03-03T14:03:53.620Z,17.72
2019-03-03T14:06:25.458Z,17.58
2019-03-03T14:08:57.304Z,17.65
2019-03-03T14:11:32.697Z,17.37
2019-03-03T14:14:04.897Z,17.64
2019-03-03T14:16:36.786Z,17.69
2019-03-03T14:19:08.617Z,17.50
2019-03-03T14:21:40.398Z,17.61
2019-03-03T14:24:12.291Z,17.58
2019-03-03T14:26:44.072Z,17.38
2019-03-03T14:29:15.914Z,17.13
2019-03-03T14:31:47.690Z,17.17
2019-03-03T14:34:19.540Z,16.87
2019-03-03T14:36:51.603Z,17.09
2019-03-03T14:39:23.452Z,17.09
2019-03-03T14:41:55.342Z,17.09
2019-03-03T14:44:27.200Z,17.14
2019-03-03T14:47:01.865Z,17.09
2019-03-03T14:49:33.866Z,17.18
2019-03-03T14:52:05.886Z,17.22
2019-03-03T14:54:37.825Z,17.32
2019-03-03T14:57:09.698Z,17.20
2019-03-03T14:59:41.517Z,17.10
2019-03-03T15:02:13.479Z,16.90
2019-03-03T15:04:45.263Z,16.86
2019-03-03T15:07:17.093Z,16.85
2019-03-03T15:09:48.963Z,16.78
2019-03-03T15:12:21.123Z,16.73
2019-03-03T15:14:52.927Z,16.63
2019-03-03T15:17:25.104Z,16.72
2019-03-03T15:19:56.910Z,16.80
2019-03-03T15:22:28.734Z,16.75
2019-03-03T15:25:00.566Z,16.86
2019-03-03T15:27:34.170Z,16.84
2019-03-03T15:30:06.503Z,16.77
2019-03-03T15:32:39.601Z,16.76
2019-03-03T15:35:11.544Z,16.80
2019-03-03T15:37:44.391Z,16.85
2019-03-03T15:40:17.929Z,16.87
2019-03-03T15:42:50.046Z,16.95
2019-03-03T15:45:22.573Z,16.88
2019-03-03T15:47:54.516Z,17.05
2019-03-03T15:50:26.750Z,16.97
2019-03-03T15:52:58.657Z,16.95
2019-03-03T15:55:30.815Z,17.05
2019-03-03T15:58:02.802Z,17.16
2019-03-03T16:00:34.668Z,16.87
2019-03-03T16:03:07.353Z,16.72
2019-03-03T16:05:39.195Z,16.86
2019-03-03T16:08:11.033Z,16.78
2019-03-03T16:10:42.852Z,16.81
2019-03-03T16:13:14.683Z,16.62
2019-03-03T16:15:46.678Z,16.58
2019-03-03T16:18:18.648Z,16.68
2019-03-03T16:20:50.459Z,16.76
2019-03-03T16:23:22.316Z,16.56
2019-03-03T16:25:54.157Z,16.47
2019-03-03T16:28:25.981Z,16.36
2019-03-03T16:30:57.815Z,16.51
2019-03-03T16:33:30.621Z,16.54
2019-03-03T16:36:02.844Z,16.48
2019-03-03T16:38:34.688Z,16.33
2019-03-03T16:41:06.719Z,16.35
2019-03-03T16:43:38.535Z,16.40
2019-03-03T16:46:10.460Z,16.50
2019-03-03T16:48:42.259Z,16.43
2019-03-03T16:51:14.147Z,16.29
2019-03-03T16:53:46.014Z,16.24
2019-03-03T16:56:17.917Z,16.25
2019-03-03T16:58:49.827Z,16.25
2019-03-03T17:01:24.492Z,16.23
2019-03-03T17:03:57.497Z,16.24
2019-03-03T17:06:29.355Z,16.20
2019-03-03T17:09:01.146Z,16.07
2019-03-03T17:11:35.240Z,16.00
2019-03-03T17:14:07.074Z,15.98
2019-03-03T17:16:39.071Z,15.92
2019-03-03T17:19:10.832Z,15.93
2019-03-03T17:21:42.819Z,15.93
2019-03-03T17:24:14.619Z,15.95
2019-03-03T17:26:46.436Z,15.91
2019-03-03T17:29:18.255Z,15.89
2019-03-03T17:31:50.112Z,15.82
2019-03-03T17:34:21.981Z,15.75
2019-03-03T17:36:53.807Z,15.74
2019-03-03T17:39:26.139Z,15.78
2019-03-03T17:41:58.136Z,15.68
2019-03-03T17:44:30.116Z,15.64
2019-03-03T17:47:01.919Z,15.57
2019-03-03T17:49:34.254Z,15.52
2019-03-03T17:52:06.135Z,15.52
2019-03-03T17:54:39.566Z,15.45
2019-03-03T17:57:11.449Z,15.44
2019-03-03T17:59:43.246Z,15.43
2019-03-03T18:02:15.145Z,15.44
2019-03-03T18:04:47.002Z,15.41
2019-03-03T18:07:18.930Z,15.41
2019-03-03T18:09:50.913Z,15.42
2019-03-03T18:12:22.757Z,15.40
2019-03-03T18:14:55.015Z,15.35
2019-03-03T18:17:26.955Z,15.36
2019-03-03T18:19:58.847Z,15.39
2019-03-03T18:22:30.724Z,15.39
2019-03-03T18:25:02.624Z,15.41
2019-03-03T18:27:34.442Z,15.37
2019-03-03T18:30:09.661Z,15.33
2019-03-03T18:32:43.397Z,15.33
2019-03-03T18:35:15.624Z,15.29
2019-03-03T18:37:48.020Z,15.33
2019-03-03T18:40:20.647Z,15.32
2019-03-03T18:42:52.782Z,15.28
2019-03-03T18:45:24.650Z,15.22
2019-03-03T18:47:56.790Z,15.21
2019-03-03T18:50:28.735Z,15.25
2019-03-03T18:53:01.933Z,15.25
2019-03-03T18:55:33.758Z,15.18
2019-03-03T18:58:06.447Z,15.19
2019-03-03T19:00:40.807Z,15.17
2019-03-03T19:03:12.977Z,15.22
2019-03-03T19:05:44.830Z,15.20
2019-03-03T19:08:16.742Z,15.25
2019-03-03T19:10:48.939Z,15.19
2019-03-03T19:13:21.761Z,15.17
2019-03-03T19:15:53.636Z,15.17
2019-03-03T19:18:25.813Z,15.11
2019-03-03T19:20:59.275Z,15.14
2019-03-03T19:23:31.219Z,15.10
2019-03-03T19:26:05.521Z,15.03
2019-03-03T19:28:37.237Z,15.03
2019-03-03T19:31:10.790Z,14.58
2019-03-03T19:33:48.634Z,15.00
2019-03-03T19:36:20.989Z,14.98
2019-03-03T19:38:53.551Z,14.87
2019-03-03T19:41:25.531Z,14.77
2019-03-03T19:43:57.553Z,14.82
2019-03-03T19:46:30.864Z,14.80
2019-03-03T19:49:04.866Z,14.81
2019-03-03T19:51:37.170Z,14.81
2019-03-03T19:54:09.235Z,14.82
2019-03-03T19:56:42.836Z,14.84
2019-03-03T19:59:14.684Z,14.80
2019-03-03T20:01:47.068Z,14.81
2019-03-03T20:04:19.056Z,14.79
2019-03-03T20:06:51.292Z,14.80
2019-03-03T20:09:23.577Z,14.80
2019-03-03T20:11:56.138Z,14.78
2019-03-03T20:14:28.180Z,14.81
2019-03-03T20:17:00.587Z,14.82
2019-03-03T20:19:33.247Z,14.82
2019-03-03T20:22:08.522Z,14.77
2019-03-03T20:24:41.444Z,14.80
2019-03-03T20:27:14.927Z,14.71
2019-03-03T20:29:48.431Z,14.73
2019-03-03T20:32:22.551Z,14.64
2019-03-03T20:34:54.477Z,14.58
2019-03-03T20:37:26.369Z,14.53
2019-03-03T20:39:58.227Z,14.45
2019-03-03T20:42:30.225Z,14.43
2019-03-03T20:45:05.297Z,14.35
2019-03-03T20:47:37.773Z,14.37
2019-03-03T20:50:13.985Z,14.26
2019-03-03T20:52:46.290Z,14.22
2019-03-03T20:55:20.183Z,14.17
2019-03-03T20:57:52.344Z,14.13
2019-03-03T21:00:25.666Z,14.07
2019-03-03T21:02:59.694Z,14.06
2019-03-03T21:05:31.548Z,14.03
2019-03-03T21:08:03.523Z,14.05
2019-03-03T21:10:35.934Z,14.01
2019-03-03T21:13:07.879Z,14.02
2019-03-03T21:15:39.887Z,14.04
2019-03-03T21:18:11.709Z,14.04
2019-03-03T21:20:45.630Z,14.07
2019-03-03T21:23:18.419Z,14.06
2019-03-03T21:25:51.931Z,14.11
2019-03-03T21:28:25.556Z,14.14
2019-03-03T21:30:57.388Z,14.18
2019-03-03T21:33:29.417Z,14.14
2019-03-03T21:36:03.736Z,14.13
2019-03-03T21:38:35.634Z,14.12
2019-03-03T21:41:07.619Z,14.29
2019-03-03T21:43:39.412Z,14.12
2019-03-03T21:46:11.382Z,14.12
2019-03-03T21:48:43.328Z,14.14
2019-03-03T21:51:15.181Z,14.21
2019-03-03T21:53:47.017Z,14.24
2019-03-03T21:56:19.219Z,14.37
2019-03-03T21:58:51.674Z,14.42
2019-03-03T22:01:25.260Z,14.51
2019-03-03T22:03:57.162Z,14.28
2019-03-03T22:06:29.033Z,14.33
2019-03-03T22:09:03.967Z,14.33
2019-03-03T22:11:37.662Z,14.42
2019-03-03T22:14:09.831Z,14.49
2019-03-03T22:16:42.639Z,14.34
2019-03-03T22:19:14.746Z,14.11
2019-03-03T22:21:46.570Z,14.31
2019-03-03T22:24:18.524Z,14.25
2019-03-03T22:40:19.093Z,14.01
2019-03-03T22:42:53.025Z,13.88
2019-03-03T22:45:27.201Z,13.94
2019-03-03T22:47:59.042Z,14.13
2019-03-03T22:50:30.886Z,14.20
2019-03-03T22:53:05.861Z,14.22
2019-03-03T22:55:40.481Z,14.02
2019-03-03T22:58:12.561Z,13.99
2019-03-03T23:01:07.101Z,13.95
2019-03-03T23:03:49.744Z,13.92
2019-03-03T23:06:48.920Z,13.89
2019-03-03T23:10:05.057Z,13.67
2019-03-03T23:13:18.574Z,13.59
2019-03-03T23:16:29.990Z,13.59
2019-03-03T23:19:44.519Z,13.79
2019-03-03T23:22:57.986Z,13.76
2019-03-03T23:25:51.783Z,13.57
2019-03-03T23:28:28.366Z,13.38
2019-03-03T23:31:00.533Z,13.50
2019-03-03T23:33:45.568Z,13.54
2019-03-03T23:36:17.629Z,13.60
2019-03-03T23:38:57.230Z,13.45
2019-03-03T23:41:29.415Z,13.47
2019-03-03T23:44:04.987Z,13.40
2019-03-03T23:46:37.250Z,13.32
2019-03-03T23:49:29.745Z,13.28
2019-03-03T23:52:05.318Z,13.38
2019-03-03T23:54:38.430Z,13.33
2019-03-03T23:57:11.700Z,13.23
2019-03-03T23:59:47.914Z,13.30
